Decoded Metar for LYNI (NIS in SERBIA) (IATA:INI) | Meteo·Mobile Aviation Weather
aviador You're here:

LYNI Decoded Metar

NIS in SERBIA
Report Time2020-02-23 10:30:00
UTC Time2020-02-23 10:48:23
Flight Rules vfr VFR
WindVRB at 03 kt
Visibility9999 m
Phenomena:N/A
Clouds:N/A
Expected CloudBase > 3,600 ft AGL from Temp-Dew spread
CeilingNone
Temp07°C (ISA -7)
Dew Point-2°C (53% RH)
AAT3.7°C
QNH1026 hPa
Density Alt-505 ft
Elevation663 ft
Report Wrong Elevation
Raw Report
LYNI 231030Z VRB03KT CAVOK 07/M02 Q1026 NOSIG=

Extra information for LYNI:More info

Metar Taf Metar & Taf Last 4 Metars F.Rules Stats Wind Profile Meteogram Temp Stats Airport Information Weather charts Add Link Nearby VenuesMetar ALERT Operation Metar Decoded Social comments